sensor_id;sensor_type;location;lat;lon;timestamp;pressure;altitude;pressure_sealevel;temperature;humidity
79236;BME280;69062;47.460;18.812;2024-01-15T00:01:03;99045.81;;;-2.18;80.67
79236;BME280;69062;47.460;18.812;2024-01-15T00:03:06;99039.56;;;-2.02;79.91
79236;BME280;69062;47.460;18.812;2024-01-15T00:05:09;99034.44;;;-2.07;79.87
79236;BME280;69062;47.460;18.812;2024-01-15T00:07:11;99030.09;;;-2.05;79.94
79236;BME280;69062;47.460;18.812;2024-01-15T00:09:14;99015.31;;;-1.98;79.97
79236;BME280;69062;47.460;18.812;2024-01-15T00:11:17;99011.84;;;-1.97;79.95
79236;BME280;69062;47.460;18.812;2024-01-15T00:13:20;99001.53;;;-1.99;80.35
79236;BME280;69062;47.460;18.812;2024-01-15T00:15:22;98988.63;;;-2.00;80.12
79236;BME280;69062;47.460;18.812;2024-01-15T00:17:26;98984.00;;;-1.83;79.81
79236;BME280;69062;47.460;18.812;2024-01-15T00:19:29;98979.00;;;-1.92;80.01
79236;BME280;69062;47.460;18.812;2024-01-15T00:21:35;98968.53;;;-1.86;79.53
79236;BME280;69062;47.460;18.812;2024-01-15T00:23:42;98970.13;;;-1.79;79.38
79236;BME280;69062;47.460;18.812;2024-01-15T00:25:45;98967.59;;;-1.82;79.26
79236;BME280;69062;47.460;18.812;2024-01-15T00:27:48;98957.53;;;-1.97;79.53
79236;BME280;69062;47.460;18.812;2024-01-15T00:29:51;98949.75;;;-1.97;79.54
79236;BME280;69062;47.460;18.812;2024-01-15T00:31:54;98955.94;;;-2.03;79.81
79236;BME280;69062;47.460;18.812;2024-01-15T00:33:57;98950.06;;;-2.12;80.05
79236;BME280;69062;47.460;18.812;2024-01-15T00:36:00;98965.50;;;-2.08;79.92
79236;BME280;69062;47.460;18.812;2024-01-15T00:38:03;98952.69;;;-2.14;80.04
79236;BME280;69062;47.460;18.812;2024-01-15T00:40:06;98957.16;;;-2.24;80.66
79236;BME280;69062;47.460;18.812;2024-01-15T00:42:10;98947.69;;;-2.23;80.67
79236;BME280;69062;47.460;18.812;2024-01-15T00:44:13;98938.38;;;-2.35;81.00
79236;BME280;69062;47.460;18.812;2024-01-15T00:46:16;98942.47;;;-2.22;80.35
79236;BME280;69062;47.460;18.812;2024-01-15T00:48:19;98949.16;;;-2.11;79.76
79236;BME280;69062;47.460;18.812;2024-01-15T00:50:21;98949.94;;;-2.06;79.64
79236;BME280;69062;47.460;18.812;2024-01-15T00:52:24;98946.81;;;-2.25;79.92
79236;BME280;69062;47.460;18.812;2024-01-15T00:54:27;98947.94;;;-2.40;80.76
79236;BME280;69062;47.460;18.812;2024-01-15T00:56:30;98940.31;;;-2.46;80.95
79236;BME280;69062;47.460;18.812;2024-01-15T00:58:33;98942.84;;;-2.43;80.85
79236;BME280;69062;47.460;18.812;2024-01-15T01:00:35;98948.78;;;-2.39;80.86
79236;BME280;69062;47.460;18.812;2024-01-15T01:02:38;98944.59;;;-2.46;81.39
79236;BME280;69062;47.460;18.812;2024-01-15T01:04:42;98939.50;;;-2.50;81.66
79236;BME280;69062;47.460;18.812;2024-01-15T01:06:45;98946.16;;;-2.35;80.91
79236;BME280;69062;47.460;18.812;2024-01-15T01:08:48;98941.03;;;-2.38;81.03
79236;BME280;69062;47.460;18.812;2024-01-15T01:10:50;98941.09;;;-2.42;81.26
79236;BME280;69062;47.460;18.812;2024-01-15T01:12:53;98948.16;;;-2.52;81.21
79236;BME280;69062;47.460;18.812;2024-01-15T01:14:56;98949.75;;;-2.43;81.20
79236;BME280;69062;47.460;18.812;2024-01-15T01:16:59;98937.84;;;-2.52;80.99
79236;BME280;69062;47.460;18.812;2024-01-15T01:19:02;98931.88;;;-2.57;80.91
79236;BME280;69062;47.460;18.812;2024-01-15T01:21:05;98930.00;;;-2.49;80.87
79236;BME280;69062;47.460;18.812;2024-01-15T01:23:08;98917.81;;;-2.41;80.33
79236;BME280;69062;47.460;18.812;2024-01-15T01:25:10;98914.28;;;-2.35;80.05
79236;BME280;69062;47.460;18.812;2024-01-15T01:27:13;98917.72;;;-2.35;79.78
79236;BME280;69062;47.460;18.812;2024-01-15T01:29:16;98910.94;;;-2.42;79.78
79236;BME280;69062;47.460;18.812;2024-01-15T01:31:19;98914.47;;;-2.46;80.37
79236;BME280;69062;47.460;18.812;2024-01-15T01:33:22;98915.59;;;-2.61;80.93
79236;BME280;69062;47.460;18.812;2024-01-15T01:35:25;98901.81;;;-2.63;80.52
79236;BME280;69062;47.460;18.812;2024-01-15T01:37:27;98906.03;;;-2.57;80.49
79236;BME280;69062;47.460;18.812;2024-01-15T01:39:30;98892.97;;;-2.50;80.30
79236;BME280;69062;47.460;18.812;2024-01-15T01:41:33;98891.50;;;-2.64;80.68
79236;BME280;69062;47.460;18.812;2024-01-15T01:43:36;98881.00;;;-2.55;79.75
79236;BME280;69062;47.460;18.812;2024-01-15T01:45:39;98888.03;;;-2.63;80.21
79236;BME280;69062;47.460;18.812;2024-01-15T01:47:42;98882.09;;;-2.68;79.95
79236;BME280;69062;47.460;18.812;2024-01-15T01:49:45;98865.13;;;-2.82;80.51
79236;BME280;69062;47.460;18.812;2024-01-15T01:51:49;98866.09;;;-2.89;81.84
79236;BME280;69062;47.460;18.812;2024-01-15T01:53:52;98879.00;;;-2.89;81.68
79236;BME280;69062;47.460;18.812;2024-01-15T01:55:56;98859.47;;;-3.05;81.70
79236;BME280;69062;47.460;18.812;2024-01-15T01:58:00;98866.94;;;-2.90;82.50
79236;BME280;69062;47.460;18.812;2024-01-15T02:00:04;98849.81;;;-2.94;83.21
79236;BME280;69062;47.460;18.812;2024-01-15T02:02:15;98851.59;;;-2.97;83.78
79236;BME280;69062;47.460;18.812;2024-01-15T02:04:19;98849.88;;;-2.98;84.16
79236;BME280;69062;47.460;18.812;2024-01-15T02:06:27;98847.34;;;-3.00;84.16
79236;BME280;69062;47.460;18.812;2024-01-15T02:08:30;98868.66;;;-2.87;83.76
79236;BME280;69062;47.460;18.812;2024-01-15T02:10:33;98854.06;;;-2.91;82.99
79236;BME280;69062;47.460;18.812;2024-01-15T02:12:36;98862.03;;;-3.05;83.19
79236;BME280;69062;47.460;18.812;2024-01-15T02:14:40;98876.53;;;-2.95;83.48
79236;BME280;69062;47.460;18.812;2024-01-15T02:16:43;98861.75;;;-2.87;83.45
79236;BME280;69062;47.460;18.812;2024-01-15T02:18:46;98858.47;;;-2.96;82.73
79236;BME280;69062;47.460;18.812;2024-01-15T02:20:49;98850.69;;;-2.95;82.44
79236;BME280;69062;47.460;18.812;2024-01-15T02:22:52;98843.84;;;-2.97;82.77
79236;BME280;69062;47.460;18.812;2024-01-15T02:24:55;98855.84;;;-2.93;82.64
79236;BME280;69062;47.460;18.812;2024-01-15T02:26:57;98836.22;;;-3.05;82.21
79236;BME280;69062;47.460;18.812;2024-01-15T02:29:00;98833.69;;;-3.08;82.27
79236;BME280;69062;47.460;18.812;2024-01-15T02:31:03;98835.41;;;-3.07;82.87
79236;BME280;69062;47.460;18.812;2024-01-15T02:33:07;98831.34;;;-3.22;82.40
79236;BME280;69062;47.460;18.812;2024-01-15T02:35:10;98831.06;;;-3.05;82.06
79236;BME280;69062;47.460;18.812;2024-01-15T02:37:13;98828.47;;;-3.05;81.62
79236;BME280;69062;47.460;18.812;2024-01-15T02:39:16;98820.22;;;-3.27;81.83
79236;BME280;69062;47.460;18.812;2024-01-15T02:41:18;98806.41;;;-3.23;81.81
79236;BME280;69062;47.460;18.812;2024-01-15T02:43:21;98824.28;;;-3.12;81.35
79236;BME280;69062;47.460;18.812;2024-01-15T02:45:24;98847.53;;;-3.12;81.38
79236;BME280;69062;47.460;18.812;2024-01-15T02:47:27;98854.50;;;-3.17;80.51
79236;BME280;69062;47.460;18.812;2024-01-15T02:49:30;98848.97;;;-3.50;80.71
79236;BME280;69062;47.460;18.812;2024-01-15T02:51:35;98849.09;;;-3.59;81.21
79236;BME280;69062;47.460;18.812;2024-01-15T02:53:38;98837.22;;;-3.71;81.60
79236;BME280;69062;47.460;18.812;2024-01-15T02:55:41;98841.50;;;-3.70;82.06
79236;BME280;69062;47.460;18.812;2024-01-15T02:57:44;98833.09;;;-3.82;82.16
79236;BME280;69062;47.460;18.812;2024-01-15T02:59:47;98821.84;;;-3.78;82.25
79236;BME280;69062;47.460;18.812;2024-01-15T03:01:50;98822.53;;;-3.66;81.22
79236;BME280;69062;47.460;18.812;2024-01-15T03:03:53;98820.84;;;-3.70;81.83
79236;BME280;69062;47.460;18.812;2024-01-15T03:05:58;98817.53;;;-3.78;81.36
79236;BME280;69062;47.460;18.812;2024-01-15T03:08:01;98810.97;;;-4.00;81.76
79236;BME280;69062;47.460;18.812;2024-01-15T03:10:05;98805.59;;;-3.83;81.30
79236;BME280;69062;47.460;18.812;2024-01-15T03:12:08;98810.81;;;-3.88;81.54
79236;BME280;69062;47.460;18.812;2024-01-15T03:14:11;98800.78;;;-4.09;82.53
79236;BME280;69062;47.460;18.812;2024-01-15T03:16:13;98795.53;;;-4.03;82.25
79236;BME280;69062;47.460;18.812;2024-01-15T03:18:16;98784.59;;;-4.19;82.29
79236;BME280;69062;47.460;18.812;2024-01-15T03:20:19;98783.59;;;-4.10;83.23
79236;BME280;69062;47.460;18.812;2024-01-15T03:22:22;98775.06;;;-4.12;83.48
79236;BME280;69062;47.460;18.812;2024-01-15T03:24:25;98787.72;;;-3.96;82.80
79236;BME280;69062;47.460;18.812;2024-01-15T03:26:28;98780.72;;;-3.88;82.43
79236;BME280;69062;47.460;18.812;2024-01-15T03:28:30;98804.75;;;-3.85;82.34
79236;BME280;69062;47.460;18.812;2024-01-15T03:30:33;98824.41;;;-3.78;81.91
79236;BME280;69062;47.460;18.812;2024-01-15T03:32:36;98802.25;;;-3.92;82.29
79236;BME280;69062;47.460;18.812;2024-01-15T03:34:39;98805.88;;;-4.05;82.57
79236;BME280;69062;47.460;18.812;2024-01-15T03:36:42;98784.47;;;-4.13;82.66
79236;BME280;69062;47.460;18.812;2024-01-15T03:38:45;98788.72;;;-4.07;82.24
79236;BME280;69062;47.460;18.812;2024-01-15T03:40:48;98821.19;;;-3.94;82.28
79236;BME280;69062;47.460;18.812;2024-01-15T03:42:51;98827.25;;;-3.97;82.28
79236;BME280;69062;47.460;18.812;2024-01-15T03:44:54;98817.03;;;-4.06;82.60
79236;BME280;69062;47.460;18.812;2024-01-15T03:46:57;98822.31;;;-4.15;82.93
79236;BME280;69062;47.460;18.812;2024-01-15T03:49:00;98826.50;;;-4.06;82.77
79236;BME280;69062;47.460;18.812;2024-01-15T03:51:03;98820.72;;;-4.25;82.96
79236;BME280;69062;47.460;18.812;2024-01-15T03:53:06;98825.72;;;-4.11;83.65
79236;BME280;69062;47.460;18.812;2024-01-15T03:55:09;98833.28;;;-3.98;82.63
79236;BME280;69062;47.460;18.812;2024-01-15T03:57:12;98825.63;;;-4.04;82.28
79236;BME280;69062;47.460;18.812;2024-01-15T03:59:14;98806.13;;;-4.25;82.34
79236;BME280;69062;47.460;18.812;2024-01-15T04:01:17;98812.09;;;-4.23;82.70
79236;BME280;69062;47.460;18.812;2024-01-15T04:03:20;98798.41;;;-4.28;82.83
79236;BME280;69062;47.460;18.812;2024-01-15T04:05:23;98783.97;;;-4.39;83.06
79236;BME280;69062;47.460;18.812;2024-01-15T04:07:26;98807.75;;;-4.18;82.66
79236;BME280;69062;47.460;18.812;2024-01-15T04:09:28;98788.28;;;-4.40;82.78
79236;BME280;69062;47.460;18.812;2024-01-15T04:11:31;98788.28;;;-4.41;84.22
79236;BME280;69062;47.460;18.812;2024-01-15T04:13:34;98784.56;;;-4.21;82.98
79236;BME280;69062;47.460;18.812;2024-01-15T04:15:37;98787.41;;;-4.40;82.65
79236;BME280;69062;47.460;18.812;2024-01-15T04:17:40;98792.50;;;-4.34;81.88
79236;BME280;69062;47.460;18.812;2024-01-15T04:19:46;98799.44;;;-4.39;81.02
79236;BME280;69062;47.460;18.812;2024-01-15T04:21:50;98804.59;;;-4.41;81.24
79236;BME280;69062;47.460;18.812;2024-01-15T04:23:53;98793.41;;;-4.40;80.89
79236;BME280;69062;47.460;18.812;2024-01-15T04:25:56;98789.03;;;-4.35;80.89
79236;BME280;69062;47.460;18.812;2024-01-15T04:27:59;98786.59;;;-4.46;81.09
79236;BME280;69062;47.460;18.812;2024-01-15T04:30:02;98790.16;;;-4.57;81.08
79236;BME280;69062;47.460;18.812;2024-01-15T04:32:05;98780.78;;;-4.61;81.58
79236;BME280;69062;47.460;18.812;2024-01-15T04:34:08;98788.34;;;-4.49;81.21
79236;BME280;69062;47.460;18.812;2024-01-15T04:36:11;98790.81;;;-4.38;80.88
79236;BME280;69062;47.460;18.812;2024-01-15T04:38:14;98783.38;;;-4.63;80.83
79236;BME280;69062;47.460;18.812;2024-01-15T04:40:17;98775.66;;;-4.66;81.39
79236;BME280;69062;47.460;18.812;2024-01-15T04:42:19;98767.16;;;-4.69;81.44
79236;BME280;69062;47.460;18.812;2024-01-15T04:44:22;98778.22;;;-4.61;80.87
79236;BME280;69062;47.460;18.812;2024-01-15T04:46:25;98768.94;;;-4.78;81.14
79236;BME280;69062;47.460;18.812;2024-01-15T04:48:28;98777.44;;;-4.69;80.95
79236;BME280;69062;47.460;18.812;2024-01-15T04:50:30;98776.56;;;-4.68;80.78
79236;BME280;69062;47.460;18.812;2024-01-15T04:52:33;98764.66;;;-4.77;80.81
79236;BME280;69062;47.460;18.812;2024-01-15T04:54:36;98775.78;;;-4.75;80.88
79236;BME280;69062;47.460;18.812;2024-01-15T04:56:39;98788.63;;;-4.74;80.76
79236;BME280;69062;47.460;18.812;2024-01-15T04:58:42;98783.59;;;-4.86;80.59
79236;BME280;69062;47.460;18.812;2024-01-15T05:00:44;98785.41;;;-4.94;81.29
79236;BME280;69062;47.460;18.812;2024-01-15T05:02:47;98789.63;;;-4.87;81.43
79236;BME280;69062;47.460;18.812;2024-01-15T05:04:50;98795.56;;;-4.80;81.18
79236;BME280;69062;47.460;18.812;2024-01-15T05:06:53;98797.34;;;-4.87;81.08
79236;BME280;69062;47.460;18.812;2024-01-15T05:08:56;98794.75;;;-4.85;80.88
79236;BME280;69062;47.460;18.812;2024-01-15T05:10:59;98792.97;;;-4.79;80.39
79236;BME280;69062;47.460;18.812;2024-01-15T05:13:02;98802.34;;;-4.73;80.37
79236;BME280;69062;47.460;18.812;2024-01-15T05:15:05;98790.50;;;-4.89;80.71
79236;BME280;69062;47.460;18.812;2024-01-15T05:17:08;98791.25;;;-4.80;80.50
79236;BME280;69062;47.460;18.812;2024-01-15T05:19:13;98795.56;;;-4.77;80.41
79236;BME280;69062;47.460;18.812;2024-01-15T05:21:16;98792.97;;;-4.79;80.59
79236;BME280;69062;47.460;18.812;2024-01-15T05:23:19;98793.78;;;-4.74;80.54
79236;BME280;69062;47.460;18.812;2024-01-15T05:25:21;98793.81;;;-4.77;80.94
79236;BME280;69062;47.460;18.812;2024-01-15T05:27:25;98790.41;;;-4.80;81.21
79236;BME280;69062;47.460;18.812;2024-01-15T05:29:28;98803.34;;;-4.86;80.94
79236;BME280;69062;47.460;18.812;2024-01-15T05:31:30;98803.44;;;-4.92;80.75
79236;BME280;69062;47.460;18.812;2024-01-15T05:33:33;98792.38;;;-5.04;80.94
79236;BME280;69062;47.460;18.812;2024-01-15T05:35:36;98806.88;;;-4.96;80.68
79236;BME280;69062;47.460;18.812;2024-01-15T05:37:42;98810.31;;;-4.97;80.45
79236;BME280;69062;47.460;18.812;2024-01-15T05:39:45;98804.41;;;-5.06;80.85
79236;BME280;69062;47.460;18.812;2024-01-15T05:41:48;98818.06;;;-4.99;80.54
79236;BME280;69062;47.460;18.812;2024-01-15T05:43:51;98808.63;;;-5.00;80.54
79236;BME280;69062;47.460;18.812;2024-01-15T05:45:54;98812.91;;;-5.01;81.31
79236;BME280;69062;47.460;18.812;2024-01-15T05:47:56;98802.75;;;-5.13;81.89
79236;BME280;69062;47.460;18.812;2024-01-15T05:50:00;98801.78;;;-5.00;82.78
79236;BME280;69062;47.460;18.812;2024-01-15T05:52:04;98799.25;;;-5.09;84.92
79236;BME280;69062;47.460;18.812;2024-01-15T05:54:06;98791.50;;;-5.04;85.07
79236;BME280;69062;47.460;18.812;2024-01-15T05:56:09;98785.47;;;-4.98;85.25
79236;BME280;69062;47.460;18.812;2024-01-15T05:58:12;98781.16;;;-4.98;86.18
79236;BME280;69062;47.460;18.812;2024-01-15T06:00:15;98771.69;;;-4.94;85.99
79236;BME280;69062;47.460;18.812;2024-01-15T06:02:18;98783.56;;;-4.81;85.96
79236;BME280;69062;47.460;18.812;2024-01-15T06:04:21;98784.25;;;-4.65;85.52
79236;BME280;69062;47.460;18.812;2024-01-15T06:06:24;98790.19;;;-4.59;85.32
79236;BME280;69062;47.460;18.812;2024-01-15T06:08:27;98791.06;;;-4.60;85.17
79236;BME280;69062;47.460;18.812;2024-01-15T06:10:30;98789.41;;;-4.67;84.51
79236;BME280;69062;47.460;18.812;2024-01-15T06:12:33;98791.13;;;-4.66;84.74
79236;BME280;69062;47.460;18.812;2024-01-15T06:14:36;98791.94;;;-4.61;84.61
79236;BME280;69062;47.460;18.812;2024-01-15T06:16:39;98796.41;;;-4.77;85.15
79236;BME280;69062;47.460;18.812;2024-01-15T06:18:42;98795.56;;;-4.77;85.35
79236;BME280;69062;47.460;18.812;2024-01-15T06:20:45;98798.13;;;-4.77;84.78
79236;BME280;69062;47.460;18.812;2024-01-15T06:22:48;98793.88;;;-4.81;85.25
79236;BME280;69062;47.460;18.812;2024-01-15T06:24:50;98800.78;;;-4.88;85.51
79236;BME280;69062;47.460;18.812;2024-01-15T06:26:53;98804.09;;;-4.75;85.18
79236;BME280;69062;47.460;18.812;2024-01-15T06:28:56;98811.00;;;-4.80;84.90
79236;BME280;69062;47.460;18.812;2024-01-15T06:30:59;98810.16;;;-4.78;85.05
79236;BME280;69062;47.460;18.812;2024-01-15T06:33:05;98811.72;;;-4.63;84.46
79236;BME280;69062;47.460;18.812;2024-01-15T06:35:19;98806.56;;;-4.64;84.08
79236;BME280;69062;47.460;18.812;2024-01-15T06:37:33;98803.16;;;-4.66;83.64
79236;BME280;69062;47.460;18.812;2024-01-15T06:39:42;98809.91;;;-4.58;83.62
79236;BME280;69062;47.460;18.812;2024-01-15T06:41:53;98814.06;;;-4.45;82.97
79236;BME280;69062;47.460;18.812;2024-01-15T06:43:55;98813.25;;;-4.50;82.77
79236;BME280;69062;47.460;18.812;2024-01-15T06:45:58;98810.59;;;-4.40;82.55
79236;BME280;69062;47.460;18.812;2024-01-15T06:48:05;98816.56;;;-4.37;82.07
79236;BME280;69062;47.460;18.812;2024-01-15T06:50:08;98814.03;;;-4.43;82.02
79236;BME280;69062;47.460;18.812;2024-01-15T06:52:11;98817.47;;;-4.41;82.00
79236;BME280;69062;47.460;18.812;2024-01-15T06:54:14;98813.31;;;-4.53;81.56
79236;BME280;69062;47.460;18.812;2024-01-15T06:56:17;98812.56;;;-4.62;81.80
79236;BME280;69062;47.460;18.812;2024-01-15T06:58:20;98807.41;;;-4.64;81.20
79236;BME280;69062;47.460;18.812;2024-01-15T07:00:23;98806.63;;;-4.69;81.47
79236;BME280;69062;47.460;18.812;2024-01-15T07:02:25;98798.91;;;-4.69;81.21
79236;BME280;69062;47.460;18.812;2024-01-15T07:04:29;98810.72;;;-4.51;81.40
79236;BME280;69062;47.460;18.812;2024-01-15T07:06:32;98818.38;;;-4.45;81.34
79236;BME280;69062;47.460;18.812;2024-01-15T07:08:35;98821.66;;;-4.32;81.16
79236;BME280;69062;47.460;18.812;2024-01-15T07:10:37;98816.53;;;-4.34;80.57
79236;BME280;69062;47.460;18.812;2024-01-15T07:12:43;98814.78;;;-4.32;80.21
79236;BME280;69062;47.460;18.812;2024-01-15T07:14:46;98820.00;;;-4.36;80.39
79236;BME280;69062;47.460;18.812;2024-01-15T07:16:49;98822.41;;;-4.23;80.42
79236;BME280;69062;47.460;18.812;2024-01-15T07:18:52;98830.16;;;-4.24;80.54
79236;BME280;69062;47.460;18.812;2024-01-15T07:20:55;98825.88;;;-4.25;80.32
79236;BME280;69062;47.460;18.812;2024-01-15T07:22:58;98827.59;;;-4.26;80.39
79236;BME280;69062;47.460;18.812;2024-01-15T07:25:00;98822.59;;;-4.38;80.27
79236;BME280;69062;47.460;18.812;2024-01-15T07:27:04;98824.97;;;-4.23;80.07
79236;BME280;69062;47.460;18.812;2024-01-15T07:29:07;98839.66;;;-4.26;80.06
79236;BME280;69062;47.460;18.812;2024-01-15T07:31:15;98842.34;;;-4.38;79.93
79236;BME280;69062;47.460;18.812;2024-01-15T07:33:18;98844.06;;;-4.39;79.68
79236;BME280;69062;47.460;18.812;2024-01-15T07:35:22;98847.38;;;-4.28;79.85
79236;BME280;69062;47.460;18.812;2024-01-15T07:37:24;98846.59;;;-4.33;79.40
79236;BME280;69062;47.460;18.812;2024-01-15T07:39:46;98850.81;;;-4.27;79.51
79236;BME280;69062;47.460;18.812;2024-01-15T07:41:49;98859.31;;;-4.21;79.13
79236;BME280;69062;47.460;18.812;2024-01-15T07:43:52;98856.91;;;-4.34;79.35
79236;BME280;69062;47.460;18.812;2024-01-15T07:45:54;98853.47;;;-4.33;79.31
79236;BME280;69062;47.460;18.812;2024-01-15T07:47:57;98844.03;;;-4.34;79.34
79236;BME280;69062;47.460;18.812;2024-01-15T07:50:00;98847.47;;;-4.37;79.49
79236;BME280;69062;47.460;18.812;2024-01-15T07:52:07;98844.78;;;-4.25;79.22
79236;BME280;69062;47.460;18.812;2024-01-15T07:54:10;98843.03;;;-4.23;79.92
79236;BME280;69062;47.460;18.812;2024-01-15T07:56:14;98848.19;;;-4.24;79.13
79236;BME280;69062;47.460;18.812;2024-01-15T07:58:17;98844.31;;;-3.88;78.38
79236;BME280;69062;47.460;18.812;2024-01-15T08:00:20;98851.34;;;-3.36;77.20
79236;BME280;69062;47.460;18.812;2024-01-15T08:02:23;98834.25;;;-2.89;75.49
79236;BME280;69062;47.460;18.812;2024-01-15T08:04:26;98832.44;;;-2.36;75.10
79236;BME280;69062;47.460;18.812;2024-01-15T08:06:29;98844.56;;;-1.95;74.18
79236;BME280;69062;47.460;18.812;2024-01-15T08:08:32;98845.63;;;-1.26;72.44
79236;BME280;69062;47.460;18.812;2024-01-15T08:10:35;98848.63;;;-1.06;71.49
79236;BME280;69062;47.460;18.812;2024-01-15T08:12:38;98835.78;;;-0.44;69.40
79236;BME280;69062;47.460;18.812;2024-01-15T08:14:41;98848.28;;;0.06;67.80
79236;BME280;69062;47.460;18.812;2024-01-15T08:16:43;98840.19;;;1.02;66.88
79236;BME280;69062;47.460;18.812;2024-01-15T08:18:47;98839.28;;;1.79;63.81
79236;BME280;69062;47.460;18.812;2024-01-15T08:20:50;98843.31;;;2.58;62.02
79236;BME280;69062;47.460;18.812;2024-01-15T08:22:54;98842.91;;;2.91;59.79
79236;BME280;69062;47.460;18.812;2024-01-15T08:24:57;98835.34;;;2.85;59.03
79236;BME280;69062;47.460;18.812;2024-01-15T08:26:59;98849.97;;;3.51;58.05
79236;BME280;69062;47.460;18.812;2024-01-15T08:29:02;98852.72;;;3.69;57.22
79236;BME280;69062;47.460;18.812;2024-01-15T08:31:05;98853.78;;;4.24;56.20
79236;BME280;69062;47.460;18.812;2024-01-15T08:33:08;98846.66;;;4.47;56.72
79236;BME280;69062;47.460;18.812;2024-01-15T08:35:22;98840.28;;;4.33;54.70
79236;BME280;69062;47.460;18.812;2024-01-15T08:37:25;98832.47;;;5.24;54.71
79236;BME280;69062;47.460;18.812;2024-01-15T08:39:28;98837.25;;;6.03;52.85
79236;BME280;69062;47.460;18.812;2024-01-15T08:41:32;98830.41;;;5.48;51.15
79236;BME280;69062;47.460;18.812;2024-01-15T08:43:35;98826.94;;;5.31;52.36
79236;BME280;69062;47.460;18.812;2024-01-15T08:45:38;98834.25;;;5.93;53.13
79236;BME280;69062;47.460;18.812;2024-01-15T08:47:41;98828.72;;;6.48;51.27
79236;BME280;69062;47.460;18.812;2024-01-15T08:49:44;98829.56;;;6.49;50.67
79236;BME280;69062;47.460;18.812;2024-01-15T08:51:48;98827.06;;;7.09;49.45
79236;BME280;69062;47.460;18.812;2024-01-15T08:53:51;98833.09;;;7.11;49.53
79236;BME280;69062;47.460;18.812;2024-01-15T08:55:54;98841.47;;;7.78;48.61
79236;BME280;69062;47.460;18.812;2024-01-15T08:57:57;98835.19;;;7.94;48.03
79236;BME280;69062;47.460;18.812;2024-01-15T09:00:00;98842.47;;;8.19;47.11
79236;BME280;69062;47.460;18.812;2024-01-15T09:02:02;98843.97;;;8.38;47.15
79236;BME280;69062;47.460;18.812;2024-01-15T09:04:05;98845.63;;;8.67;46.09
79236;BME280;69062;47.460;18.812;2024-01-15T09:06:08;98838.78;;;8.65;45.90
79236;BME280;69062;47.460;18.812;2024-01-15T09:08:12;98834.41;;;8.92;46.57
79236;BME280;69062;47.460;18.812;2024-01-15T09:10:15;98834.44;;;9.05;45.97
79236;BME280;69062;47.460;18.812;2024-01-15T09:12:19;98825.81;;;9.03;44.77
79236;BME280;69062;47.460;18.812;2024-01-15T09:14:23;98817.94;;;8.89;45.65
79236;BME280;69062;47.460;18.812;2024-01-15T09:16:38;98821.28;;;9.32;44.71
79236;BME280;69062;47.460;18.812;2024-01-15T09:18:41;98821.69;;;9.65;44.47
79236;BME280;69062;47.460;18.812;2024-01-15T09:20:44;98819.53;;;9.45;45.00
79236;BME280;69062;47.460;18.812;2024-01-15T09:22:46;98813.47;;;10.08;43.27
79236;BME280;69062;47.460;18.812;2024-01-15T09:24:49;98822.41;;;9.67;42.92
79236;BME280;69062;47.460;18.812;2024-01-15T09:26:52;98807.56;;;10.30;42.66
79236;BME280;69062;47.460;18.812;2024-01-15T09:28:55;98808.50;;;10.42;41.58
79236;BME280;69062;47.460;18.812;2024-01-15T09:30:58;98809.09;;;10.95;40.42
79236;BME280;69062;47.460;18.812;2024-01-15T09:33:01;98803.88;;;11.06;39.93
79236;BME280;69062;47.460;18.812;2024-01-15T09:35:04;98802.19;;;11.05;40.98
79236;BME280;69062;47.460;18.812;2024-01-15T09:37:06;98799.88;;;11.24;40.98
79236;BME280;69062;47.460;18.812;2024-01-15T09:39:09;98806.63;;;11.64;39.65
79236;BME280;69062;47.460;18.812;2024-01-15T09:41:14;98803.38;;;11.25;40.30
79236;BME280;69062;47.460;18.812;2024-01-15T09:43:17;98803.94;;;11.52;38.98
79236;BME280;69062;47.460;18.812;2024-01-15T09:45:20;98798.19;;;11.58;37.57
79236;BME280;69062;47.460;18.812;2024-01-15T09:47:23;98787.41;;;11.02;38.09
79236;BME280;69062;47.460;18.812;2024-01-15T09:49:27;98784.97;;;10.13;40.21
79236;BME280;69062;47.460;18.812;2024-01-15T09:51:31;98781.97;;;9.29;40.90
79236;BME280;69062;47.460;18.812;2024-01-15T09:53:35;98777.56;;;8.75;42.29
79236;BME280;69062;47.460;18.812;2024-01-15T09:55:40;98774.84;;;8.36;44.80
79236;BME280;69062;47.460;18.812;2024-01-15T09:57:44;98772.09;;;7.80;45.70
79236;BME280;69062;47.460;18.812;2024-01-15T09:59:48;98762.41;;;7.52;46.79
79236;BME280;69062;47.460;18.812;2024-01-15T10:01:52;98751.69;;;6.97;48.27
79236;BME280;69062;47.460;18.812;2024-01-15T10:03:56;98756.78;;;6.68;49.23
79236;BME280;69062;47.460;18.812;2024-01-15T10:05:59;98752.41;;;6.69;49.25
79236;BME280;69062;47.460;18.812;2024-01-15T10:08:03;98739.44;;;6.66;48.71
79236;BME280;69062;47.460;18.812;2024-01-15T10:10:07;98738.94;;;6.43;49.10
79236;BME280;69062;47.460;18.812;2024-01-15T10:12:10;98739.66;;;6.31;50.30
79236;BME280;69062;47.460;18.812;2024-01-15T10:14:13;98744.28;;;6.42;51.07
79236;BME280;69062;47.460;18.812;2024-01-15T10:16:16;98737.69;;;6.19;49.54
79236;BME280;69062;47.460;18.812;2024-01-15T10:18:18;98741.84;;;6.39;50.89
79236;BME280;69062;47.460;18.812;2024-01-15T10:20:22;98727.72;;;6.41;49.91
79236;BME280;69062;47.460;18.812;2024-01-15T10:22:25;98725.41;;;6.35;49.90
79236;BME280;69062;47.460;18.812;2024-01-15T10:24:28;98730.25;;;6.27;49.38
79236;BME280;69062;47.460;18.812;2024-01-15T10:26:32;98730.47;;;6.22;50.26
79236;BME280;69062;47.460;18.812;2024-01-15T10:28:35;98730.16;;;6.13;51.49
79236;BME280;69062;47.460;18.812;2024-01-15T10:30:37;98730.47;;;6.06;50.51
79236;BME280;69062;47.460;18.812;2024-01-15T10:32:40;98725.09;;;6.10;49.44
79236;BME280;69062;47.460;18.812;2024-01-15T10:34:43;98735.47;;;6.11;49.55
79236;BME280;69062;47.460;18.812;2024-01-15T10:36:46;98729.81;;;6.19;50.13
79236;BME280;69062;47.460;18.812;2024-01-15T10:38:52;98719.53;;;6.16;48.40
79236;BME280;69062;47.460;18.812;2024-01-15T10:40:56;98716.13;;;6.14;47.69
79236;BME280;69062;47.460;18.812;2024-01-15T10:42:59;98715.69;;;6.21;47.87
79236;BME280;69062;47.460;18.812;2024-01-15T10:45:02;98716.91;;;6.31;47.64
79236;BME280;69062;47.460;18.812;2024-01-15T10:47:05;98708.72;;;5.89;49.07